SALMON FALLS @ MILTON: From 06/27/2020 16:00 to 07/11/2020 23:00

Date STAGE [FT] FLOW [CFS] LAKE ELEVATION [FT] PRECIPITATION INCREMENT [IN] AIR TEMPERATURE [DEGF]
07/11/2020 18:00 -- -- -- 0.00 --
07/11/2020 17:00 2.86 -- 413.59 0.00 77.8
07/11/2020 16:00 2.84 -- 413.56 0.00 77.7
07/11/2020 15:00 2.84 57.7 413.54 0.00 81.0
07/11/2020 14:00 2.84 57.7 413.53 0.00 81.4
07/11/2020 13:00 2.84 57.7 413.53 0.00 79.3
07/11/2020 12:00 2.84 57.7 413.54 0.00 76.4
07/11/2020 11:00 2.84 57.7 413.52 0.00 72.0
07/11/2020 10:00 2.83 56.2 413.51 0.00 70.9
07/11/2020 09:00 2.84 57.7 413.52 0.00 70.8
07/11/2020 08:00 2.84 57.7 413.55 0.00 70.3
07/11/2020 07:00 2.84 57.7 413.54 0.00 70.1
07/11/2020 06:00 2.84 57.7 413.53 0.00 69.9
07/11/2020 05:00 2.84 57.7 413.55 0.00 70.5
07/11/2020 04:00 2.84 57.7 413.53 0.00 71.2
07/11/2020 03:00 2.84 57.7 413.52 0.00 71.1
07/11/2020 02:00 2.84 57.7 413.52 0.00 70.4
07/11/2020 01:00 2.83 56.2 413.50 0.00 70.2
07/11/2020 00:00 2.84 57.7 413.53 0.00 69.8
07/10/2020 23:00 2.84 57.7 413.53 0.00 69.7
07/10/2020 22:00 2.83 56.2 413.52 0.00 70.3
07/10/2020 21:00 2.84 57.7 413.52 0.00 70.9
07/10/2020 20:00 2.83 56.2 413.52 0.00 72.0
07/10/2020 19:00 2.83 56.2 413.52 0.00 75.7
07/10/2020 18:00 2.83 56.2 413.52 0.00 78.1
07/10/2020 17:00 2.83 56.2 413.50 0.00 79.2
07/10/2020 16:00 2.83 56.2 413.51 0.00 82.6
07/10/2020 15:00 2.83 56.2 413.50 0.00 83.7
07/10/2020 14:00 2.83 56.2 413.50 0.00 83.7
07/10/2020 13:00 2.83 56.2 413.52 0.00 83.2
07/10/2020 12:00 2.87 62.2 413.51 0.00 81.2
07/10/2020 11:00 2.84 57.7 413.52 0.00 76.6
07/10/2020 10:00 2.84 57.7 413.52 0.00 71.7
07/10/2020 09:00 2.84 57.7 413.51 0.00 69.6
07/10/2020 08:00 2.84 57.7 413.51 0.00 68.8
07/10/2020 07:00 2.84 57.7 413.52 0.00 68.4
07/10/2020 06:00 2.84 57.7 413.52 0.00 69.1
07/10/2020 05:00 2.84 57.7 413.53 0.00 69.4
07/10/2020 04:00 2.87 62.2 413.53 0.00 71.0
07/10/2020 03:00 2.84 57.7 413.53 0.00 70.2
07/10/2020 02:00 2.88 63.8 413.53 0.00 70.7
07/10/2020 01:00 2.86 60.7 413.53 0.00 72.0
07/10/2020 00:00 3.42 196.9 413.53 0.00 72.8
07/09/2020 23:00 2.92 70.3 413.53 0.00 74.0
07/09/2020 22:00 2.83 56.2 413.53 0.00 75.5
07/09/2020 21:00 2.83 56.2 413.52 0.00 78.5
07/09/2020 20:00 2.82 54.8 413.51 0.00 80.8
07/09/2020 19:00 2.83 56.2 413.51 0.00 83.7
07/09/2020 18:00 2.83 56.2 413.52 0.00 84.7
07/09/2020 17:00 2.83 56.2 413.51 0.00 85.7
07/09/2020 16:00 2.83 56.2 413.51 0.00 85.7
07/09/2020 15:00 2.83 56.2 413.52 0.00 85.6
07/09/2020 14:00 2.83 56.2 413.52 0.00 84.4
07/09/2020 13:00 2.83 56.2 413.52 0.00 82.8
07/09/2020 12:00 2.83 56.2 413.53 0.00 78.8
07/09/2020 11:00 2.83 56.2 413.52 0.00 74.6
07/09/2020 10:00 2.83 56.2 413.54 0.00 70.0
07/09/2020 09:00 2.83 56.2 413.51 0.00 68.3
07/09/2020 08:00 2.83 56.2 413.51 0.00 67.5
07/09/2020 07:00 2.83 56.2 413.51 0.00 68.0
07/09/2020 06:00 2.83 56.2 413.51 0.00 66.4
07/09/2020 05:00 2.83 56.2 413.51 0.00 65.6
07/09/2020 04:00 2.83 56.2 413.51 0.00 65.6
07/09/2020 03:00 2.83 56.2 413.50 0.00 67.0
07/09/2020 02:00 2.83 56.2 413.51 0.00 67.0
07/09/2020 01:00 2.83 56.2 413.50 0.00 66.8
07/09/2020 00:00 2.83 56.2 413.51 0.00 67.2
07/08/2020 23:00 2.82 54.8 413.51 0.00 68.5
07/08/2020 22:00 2.82 54.8 413.50 0.00 70.6
07/08/2020 21:00 2.84 57.7 413.53 0.00 71.8
07/08/2020 20:00 2.83 56.2 413.50 0.00 76.4
07/08/2020 19:00 2.83 56.2 413.50 0.00 74.6
07/08/2020 18:00 2.82 54.8 413.50 0.00 74.3
07/08/2020 17:00 2.82 54.8 413.49 0.00 80.1
07/08/2020 16:00 2.82 54.8 413.48 0.00 83.0
07/08/2020 15:00 2.82 54.8 413.49 0.00 79.4
07/08/2020 14:00 2.82 54.8 413.48 0.00 78.4
07/08/2020 13:00 2.82 54.8 413.49 0.00 77.6
07/08/2020 12:00 2.82 54.8 413.49 0.00 74.5
07/08/2020 11:00 2.82 54.8 413.48 0.00 72.5
07/08/2020 10:00 2.82 54.8 413.48 0.00 69.8
07/08/2020 09:00 2.82 54.8 413.49 0.00 67.7
07/08/2020 08:00 2.82 54.8 413.49 0.00 67.2
07/08/2020 07:00 2.82 54.8 413.48 0.00 66.0
07/08/2020 06:00 2.82 54.8 413.48 0.00 65.5
07/08/2020 05:00 2.81 53.4 413.47 0.00 65.4
07/08/2020 04:00 2.81 53.4 413.48 0.00 65.2
07/08/2020 03:00 2.81 53.4 413.48 0.00 65.5
07/08/2020 02:00 2.82 54.8 413.48 0.00 65.0
07/08/2020 01:00 2.82 54.8 413.48 0.00 64.7
07/08/2020 00:00 2.82 54.8 413.48 0.00 64.0
07/07/2020 23:00 2.82 54.8 413.48 0.00 63.3
07/07/2020 22:00 2.82 54.8 413.48 0.00 65.1
07/07/2020 21:00 2.81 53.4 413.47 0.00 67.3
07/07/2020 20:00 2.81 53.4 413.48 0.00 69.7
07/07/2020 19:00 2.80 52.0 413.46 0.00 72.6
07/07/2020 18:00 2.80 52.0 413.46 0.00 73.4
07/07/2020 17:00 2.81 53.4 413.46 0.00 74.5
07/07/2020 16:00 2.80 52.0 413.46 0.00 74.9
07/07/2020 15:00 2.80 52.0 413.46 0.00 73.8
07/07/2020 14:00 2.81 53.4 413.46 0.00 74.0
07/07/2020 13:00 2.81 53.4 413.45 0.00 72.9
07/07/2020 12:00 2.80 52.0 413.46 0.00 70.4
07/07/2020 11:00 2.81 53.4 413.46 0.00 65.4
07/07/2020 10:00 2.81 53.4 413.45 0.00 60.9
07/07/2020 09:00 2.81 53.4 413.46 0.00 59.9
07/07/2020 08:00 2.80 52.0 413.46 0.00 58.7
07/07/2020 07:00 2.81 53.4 413.45 0.00 58.2
07/07/2020 06:00 2.80 52.0 413.45 0.00 55.1
07/07/2020 05:00 2.80 52.0 413.46 0.00 57.0
07/07/2020 04:00 2.80 52.0 413.45 0.00 58.3
07/07/2020 03:00 2.80 52.0 413.45 0.00 58.8
07/07/2020 02:00 2.80 52.0 413.44 0.00 60.2
07/07/2020 01:00 2.80 52.0 413.45 0.00 59.4
07/07/2020 00:00 2.80 52.0 413.44 0.00 61.4
07/06/2020 23:00 2.80 52.0 413.44 0.00 62.1
07/06/2020 22:00 2.80 52.0 413.43 0.00 63.7
07/06/2020 21:00 2.79 50.6 413.42 0.00 66.8
07/06/2020 20:00 2.79 50.6 413.42 0.00 70.0
07/06/2020 19:00 2.79 50.6 413.41 0.00 72.4
07/06/2020 18:00 2.78 49.3 413.41 0.00 74.9
07/06/2020 17:00 2.79 50.6 413.41 0.00 76.3
07/06/2020 16:00 2.79 50.6 413.40 0.00 76.2
07/06/2020 15:00 2.80 52.0 413.42 0.00 78.2
07/06/2020 14:00 2.80 52.0 413.42 0.00 75.9
07/06/2020 13:00 2.85 59.2 413.41 0.00 73.8
07/06/2020 12:00 3.43 200.3 413.42 0.00 71.7
07/06/2020 11:00 3.44 203.9 413.42 0.00 70.1
07/06/2020 10:00 3.43 200.3 413.44 0.00 68.0
07/06/2020 09:00 3.44 203.9 413.44 0.00 66.3
07/06/2020 08:00 3.44 203.9 413.44 0.00 65.4
07/06/2020 07:00 3.44 203.9 413.44 0.00 64.4
07/06/2020 06:00 3.44 203.9 413.45 0.00 65.0
07/06/2020 05:00 3.45 207.5 413.46 0.00 64.3
07/06/2020 04:00 3.45 207.5 413.46 0.00 63.7
07/06/2020 03:00 3.45 207.5 413.47 0.00 63.5
07/06/2020 02:00 3.45 207.5 413.47 0.00 63.7
07/06/2020 01:00 3.45 207.5 413.48 0.00 64.5
07/06/2020 00:00 3.46 211.1 413.49 0.00 65.3
07/05/2020 23:00 3.46 211.1 413.49 0.00 66.3
07/05/2020 22:00 3.46 211.1 413.49 0.00 66.9
07/05/2020 21:00 3.46 211.1 413.49 0.00 68.4
07/05/2020 20:00 3.45 207.5 413.49 0.00 68.8
07/05/2020 19:00 3.47 214.7 413.51 0.00 72.2
07/05/2020 18:00 3.46 211.1 413.51 0.00 73.0
07/05/2020 17:00 3.47 214.7 413.52 0.00 75.8
07/05/2020 16:00 3.47 214.7 413.52 0.00 77.7
07/05/2020 15:00 3.47 214.7 413.53 0.00 77.9
07/05/2020 14:00 3.48 218.4 413.54 0.00 76.4
07/05/2020 13:00 3.49 222.2 413.54 0.00 74.2
07/05/2020 12:00 3.49 222.2 413.56 0.00 67.8
07/05/2020 11:00 3.49 222.2 413.56 0.00 65.6
07/05/2020 10:00 3.49 222.2 413.57 0.00 64.6
07/05/2020 09:00 3.49 222.2 413.57 0.00 62.9
07/05/2020 08:00 3.49 222.2 413.58 0.00 62.3
07/05/2020 07:00 3.49 222.2 413.58 0.00 62.6
07/05/2020 06:00 3.50 226.0 413.59 0.00 62.8
07/05/2020 05:00 3.49 222.2 413.59 0.00 63.5
07/05/2020 04:00 3.50 226.0 413.60 0.00 63.2
07/05/2020 03:00 3.50 226.0 413.61 0.00 62.5
07/05/2020 02:00 3.50 226.0 413.61 0.00 63.5
07/05/2020 01:00 3.50 226.0 413.62 0.00 63.5
07/05/2020 00:00 3.50 226.0 413.62 0.00 63.4
07/04/2020 23:00 3.51 229.8 413.63 0.00 63.8
07/04/2020 22:00 3.50 226.0 413.63 0.00 64.4
07/04/2020 21:00 3.50 226.0 413.62 0.00 68.2
07/04/2020 20:00 3.51 229.8 413.64 0.00 72.7
07/04/2020 19:00 3.51 229.8 413.64 0.00 75.2
07/04/2020 18:00 3.51 229.8 413.65 0.00 77.3
07/04/2020 17:00 3.51 229.8 413.66 0.00 78.1
07/04/2020 16:00 3.52 233.6 413.68 0.00 80.0
07/04/2020 15:00 3.52 233.6 413.68 0.00 80.2
07/04/2020 14:00 3.52 233.6 413.69 0.00 77.0
07/04/2020 13:00 3.53 237.5 413.69 0.00 74.8
07/04/2020 12:00 3.53 237.5 413.70 0.00 74.0
07/04/2020 11:00 3.53 237.5 413.70 0.00 70.3
07/04/2020 10:00 3.53 237.5 413.71 0.00 68.5
07/04/2020 09:00 3.53 237.5 413.72 0.00 65.4
07/04/2020 08:00 3.53 237.5 413.72 0.00 62.4
07/04/2020 07:00 3.54 241.5 413.72 0.00 60.8
07/04/2020 06:00 3.54 241.5 413.73 0.00 60.9
07/04/2020 05:00 3.54 241.5 413.73 0.00 61.2
07/04/2020 04:00 3.55 245.4 413.74 0.00 61.6
07/04/2020 03:00 3.54 241.5 413.75 0.00 61.5
07/04/2020 02:00 3.55 245.4 413.75 0.00 61.5
07/04/2020 01:00 3.55 245.4 413.76 0.00 61.5
07/04/2020 00:00 3.55 245.4 413.76 0.00 62.3
07/03/2020 23:00 3.55 245.4 413.76 0.00 62.9
07/03/2020 22:00 3.55 245.4 413.76 0.00 62.8
07/03/2020 21:00 3.55 245.4 413.77 0.00 63.9
07/03/2020 20:00 3.55 245.4 413.77 0.00 64.2
07/03/2020 19:00 3.55 245.4 413.78 0.00 65.7
07/03/2020 18:00 3.55 245.4 413.78 0.00 67.0
07/03/2020 17:00 3.56 249.5 413.78 0.00 68.0
07/03/2020 16:00 3.56 249.5 413.79 0.00 67.9
07/03/2020 15:00 3.56 249.5 413.79 0.00 65.7
07/03/2020 14:00 3.56 249.5 413.80 0.00 65.7
07/03/2020 13:00 3.56 249.5 413.81 0.00 64.3
07/03/2020 12:00 3.57 253.5 413.82 0.00 64.2
07/03/2020 11:00 3.57 253.5 413.83 0.00 67.1
07/03/2020 10:00 3.57 253.5 413.82 0.00 67.8
07/03/2020 09:00 3.57 253.5 413.83 0.00 69.7
07/03/2020 08:00 3.57 253.5 413.83 0.00 70.4
07/03/2020 07:00 3.57 253.5 413.84 0.00 71.3
07/03/2020 06:00 3.58 257.6 413.85 0.00 72.4
07/03/2020 05:00 3.58 257.6 413.84 0.00 73.1
07/03/2020 04:00 3.58 257.6 413.85 0.00 71.8
07/03/2020 03:00 3.58 257.6 413.86 0.00 71.8
07/03/2020 02:00 3.57 253.5 413.84 0.00 72.7
07/03/2020 01:00 3.58 257.6 413.86 0.00 73.8
07/03/2020 00:00 3.58 257.6 413.86 0.00 75.0
07/02/2020 23:00 3.58 257.6 413.87 0.00 74.6
07/02/2020 22:00 3.58 257.6 413.88 0.00 75.4
07/02/2020 21:00 3.58 257.6 413.87 0.00 77.5
07/02/2020 20:00 3.59 261.8 413.87 0.00 82.2
07/02/2020 19:00 3.59 261.8 413.88 0.00 87.8
07/02/2020 18:00 3.58 257.6 413.88 0.00 87.5
07/02/2020 17:00 3.59 261.8 413.88 0.00 87.5
07/02/2020 16:00 3.59 261.8 413.88 0.00 85.8
07/02/2020 15:00 3.59 261.8 413.89 0.00 84.6
07/02/2020 14:00 3.59 261.8 413.89 0.00 83.3
07/02/2020 13:00 3.59 261.8 413.89 0.00 81.9
07/02/2020 12:00 3.59 261.8 413.89 0.00 78.8
07/02/2020 11:00 3.52 233.6 413.90 0.00 75.0
07/02/2020 10:00 3.52 233.6 413.90 0.00 67.9
07/02/2020 09:00 3.53 237.5 413.91 0.00 64.4
07/02/2020 08:00 3.52 233.6 413.90 0.00 62.4
07/02/2020 07:00 3.52 233.6 413.91 0.00 61.4
07/02/2020 06:00 3.53 237.5 413.90 0.00 61.7
07/02/2020 05:00 3.53 237.5 413.90 0.00 62.0
07/02/2020 04:00 3.52 233.6 413.91 0.00 62.0
07/02/2020 03:00 3.53 237.5 413.91 0.00 61.4
07/02/2020 02:00 3.53 237.5 413.91 0.00 63.1
07/02/2020 01:00 3.53 237.5 413.91 0.00 62.9
07/02/2020 00:00 3.52 233.6 413.91 0.00 63.6
07/01/2020 23:00 3.52 233.6 413.90 0.00 65.1
07/01/2020 22:00 3.53 237.5 413.91 0.00 66.0
07/01/2020 21:00 3.52 233.6 413.91 0.00 68.0
07/01/2020 20:00 3.52 233.6 413.91 0.00 71.4
07/01/2020 19:00 3.53 237.5 413.91 0.00 73.5
07/01/2020 18:00 3.52 233.6 413.90 0.00 76.4
07/01/2020 17:00 3.53 237.5 413.91 0.00 76.4
07/01/2020 16:00 3.52 233.6 413.91 0.00 74.9
07/01/2020 15:00 3.51 229.8 413.91 0.00 74.4
07/01/2020 14:00 3.97 432.0 413.87 0.00 71.6
07/01/2020 13:00 3.98 437.3 413.91 0.00 70.0
07/01/2020 12:00 4.00 448.0 413.92 0.00 68.0
07/01/2020 11:00 4.00 448.0 413.95 0.00 66.0
07/01/2020 10:00 4.01 453.4 413.97 0.00 64.5
07/01/2020 09:00 4.01 453.4 413.99 0.00 63.7
07/01/2020 08:00 3.92 406.1 414.04 0.00 64.0
07/01/2020 07:00 3.93 411.2 414.06 0.00 63.8
07/01/2020 06:00 3.94 416.3 414.08 0.00 63.6
07/01/2020 05:00 3.94 416.3 414.10 0.00 63.7
07/01/2020 04:00 3.95 421.5 414.11 0.00 63.6
07/01/2020 03:00 3.96 426.7 414.13 0.00 63.6
07/01/2020 02:00 3.98 437.3 414.15 0.00 63.9
07/01/2020 01:00 3.98 437.3 414.17 0.00 64.0
07/01/2020 00:00 3.99 442.6 414.18 0.00 64.2
06/30/2020 23:00 3.99 442.6 414.20 0.00 65.7
06/30/2020 22:00 3.92 406.1 414.23 0.00 65.7
06/30/2020 21:00 3.94 416.3 414.25 0.00 66.4
06/30/2020 20:00 4.05 475.5 414.24 0.00 67.0
06/30/2020 19:00 4.06 481.1 414.27 0.00 66.8
06/30/2020 18:00 4.07 486.7 414.29 0.00 67.6
06/30/2020 17:00 4.09 498.2 414.32 0.00 67.0
06/30/2020 16:00 4.10 504.0 414.35 0.00 67.5
06/30/2020 15:00 3.64 281.6 414.41 0.00 68.5
06/30/2020 14:00 3.64 281.6 414.41 0.00 68.9
06/30/2020 13:00 3.66 289.6 414.43 0.00 70.4
06/30/2020 12:00 3.31 161.0 414.42 0.00 67.4
06/30/2020 11:00 3.31 161.0 414.42 0.00 66.6
06/30/2020 10:00 3.30 158.0 414.41 0.00 66.1
06/30/2020 09:00 3.29 155.0 414.40 0.00 65.0
06/30/2020 08:00 3.28 152.1 414.39 0.00 64.1
06/30/2020 07:00 3.26 146.3 414.39 0.00 64.5
06/30/2020 06:00 3.25 143.5 414.37 0.00 64.0
06/30/2020 05:00 3.24 140.7 414.37 0.00 63.8
06/30/2020 04:00 3.21 132.6 414.35 0.00 63.4
06/30/2020 03:00 3.20 130.0 414.34 0.00 63.5
06/30/2020 02:00 3.17 122.4 414.32 0.00 63.5
06/30/2020 01:00 3.15 117.6 414.32 0.00 63.7
06/30/2020 00:00 3.13 112.8 414.30 0.00 63.1
06/29/2020 23:00 3.10 106.0 414.29 0.00 62.9
06/29/2020 22:00 3.08 101.5 414.27 0.00 62.1
06/29/2020 21:00 3.05 95.0 414.26 0.00 62.0
06/29/2020 20:00 2.97 79.2 414.22 0.00 63.8
06/29/2020 19:00 2.95 75.6 414.20 0.00 65.0
06/29/2020 18:00 2.90 67.0 414.18 0.00 65.1
06/29/2020 17:00 2.85 59.2 414.15 0.00 65.7
06/29/2020 16:00 2.81 53.4 414.14 0.00 65.7
06/29/2020 15:00 2.77 48.0 414.11 0.00 66.6
06/29/2020 14:00 2.73 43.0 414.08 0.00 67.7
06/29/2020 13:00 2.69 38.4 414.08 0.00 67.0
06/29/2020 12:00 2.61 30.1 414.02 0.00 66.7
06/29/2020 11:00 2.54 24.1 413.99 0.00 65.5
06/29/2020 10:00 2.48 19.6 413.97 0.00 65.5
06/29/2020 09:00 2.41 15.1 413.93 0.00 65.5
06/29/2020 08:00 2.36 12.4 413.90 0.00 65.6
06/29/2020 07:00 2.30 9.6 413.86 0.00 65.3
06/29/2020 06:00 2.25 7.7 413.84 0.00 65.8
06/29/2020 05:00 2.22 6.6 413.79 0.00 66.2
06/29/2020 04:00 2.21 6.3 413.76 0.00 66.8
06/29/2020 03:00 2.21 6.3 413.68 0.00 66.5
06/29/2020 02:00 2.21 6.3 413.65 0.00 66.5
06/29/2020 01:00 2.21 6.3 413.62 0.00 66.8
06/29/2020 00:00 2.21 6.3 413.57 0.00 66.4
06/28/2020 23:00 2.21 6.3 413.55 0.00 66.5
06/28/2020 22:00 2.21 6.3 413.52 0.00 67.1
06/28/2020 21:00 2.20 6.0 413.52 0.00 66.8
06/28/2020 20:00 2.20 6.0 413.51 0.00 68.8
06/28/2020 19:00 2.20 6.0 413.55 0.00 74.5
06/28/2020 18:00 2.20 6.0 413.48 0.00 76.4
06/28/2020 17:00 2.19 6.0 413.50 0.00 77.4
06/28/2020 16:00 2.19 6.0 413.50 0.00 78.4
06/28/2020 15:00 2.20 6.0 413.50 0.00 79.2
06/28/2020 14:00 2.20 6.0 413.51 0.00 78.3
06/28/2020 13:00 2.20 6.0 413.50 0.00 78.3
06/28/2020 12:00 2.20 6.0 413.52 0.00 77.4
06/28/2020 11:00 2.20 6.0 413.51 0.00 74.7
06/28/2020 10:00 2.20 6.0 413.51 0.00 72.6
06/28/2020 09:00 2.20 6.0 413.52 0.00 70.2
06/28/2020 08:00 2.20 6.0 413.52 0.00 64.6
06/28/2020 07:00 2.20 6.0 413.52 0.00 61.8
06/28/2020 06:00 2.20 6.0 413.52 0.00 61.4
06/28/2020 05:00 2.20 6.0 413.51 0.00 61.9
06/28/2020 04:00 2.20 6.0 413.51 0.00 62.8
06/28/2020 03:00 2.20 6.0 413.51 0.00 63.0
06/28/2020 02:00 2.20 6.0 413.52 0.00 64.1
06/28/2020 01:00 2.20 6.0 413.51 0.00 66.8
06/28/2020 00:00 2.20 6.0 413.52 0.00 69.0
06/27/2020 23:00 2.20 6.0 413.52 0.00 69.4
06/27/2020 22:00 2.20 6.0 413.52 0.00 70.4
06/27/2020 21:00 2.20 6.0 413.51 0.00 71.9
06/27/2020 20:00 2.19 6.0 413.52 0.00 72.2
06/27/2020 19:00 2.19 6.0 413.50 0.00 74.4
06/27/2020 18:00 2.19 6.0 413.51 0.00 78.2
06/27/2020 17:00 -- -- -- -- --
06/27/2020 16:00 -- -- -- -- --